sensor_id;sensor_type;location;lat;lon;timestamp;temperature;humidity
10175;DHT22;18221;38.704;0.152;2023-03-24T00:05:21;14.60;99.90
10175;DHT22;18221;38.704;0.152;2023-03-24T00:07:50;14.60;99.90
10175;DHT22;18221;38.704;0.152;2023-03-24T00:10:19;14.70;99.90
10175;DHT22;18221;38.704;0.152;2023-03-24T00:12:49;14.70;99.90
10175;DHT22;18221;38.704;0.152;2023-03-24T00:15:19;14.80;99.90
10175;DHT22;18221;38.704;0.152;2023-03-24T00:17:49;14.80;99.90
10175;DHT22;18221;38.704;0.152;2023-03-24T00:20:21;14.90;99.90
10175;DHT22;18221;38.704;0.152;2023-03-24T00:22:52;14.90;99.90
10175;DHT22;18221;38.704;0.152;2023-03-24T00:25:25;14.90;99.90
10175;DHT22;18221;38.704;0.152;2023-03-24T00:27:59;14.90;99.90
10175;DHT22;18221;38.704;0.152;2023-03-24T00:30:28;14.90;99.90
10175;DHT22;18221;38.704;0.152;2023-03-24T00:32:56;14.90;99.90
10175;DHT22;18221;38.704;0.152;2023-03-24T00:35:28;14.90;99.90
10175;DHT22;18221;38.704;0.152;2023-03-24T00:37:57;14.80;99.90
10175;DHT22;18221;38.704;0.152;2023-03-24T00:40:25;14.80;99.90
10175;DHT22;18221;38.704;0.152;2023-03-24T00:42:54;14.90;99.90
10175;DHT22;18221;38.704;0.152;2023-03-24T00:45:24;14.90;99.90
10175;DHT22;18221;38.704;0.152;2023-03-24T00:47:55;14.90;99.90
10175;DHT22;18221;38.704;0.152;2023-03-24T00:50:28;14.90;99.90
10175;DHT22;18221;38.704;0.152;2023-03-24T00:52:58;14.80;99.90
10175;DHT22;18221;38.704;0.152;2023-03-24T00:55:27;14.80;99.90
10175;DHT22;18221;38.704;0.152;2023-03-24T00:57:57;14.80;99.90
10175;DHT22;18221;38.704;0.152;2023-03-24T01:00:26;14.80;99.90
10175;DHT22;18221;38.704;0.152;2023-03-24T01:02:56;14.80;99.90
10175;DHT22;18221;38.704;0.152;2023-03-24T01:05:28;14.80;99.90
10175;DHT22;18221;38.704;0.152;2023-03-24T01:07:59;14.90;99.90
10175;DHT22;18221;38.704;0.152;2023-03-24T01:10:30;14.90;99.90
10175;DHT22;18221;38.704;0.152;2023-03-24T01:13:01;15.00;99.90
10175;DHT22;18221;38.704;0.152;2023-03-24T01:15:31;15.00;99.90
10175;DHT22;18221;38.704;0.152;2023-03-24T01:18:01;15.10;99.90
10175;DHT22;18221;38.704;0.152;2023-03-24T01:20:31;15.10;99.90
10175;DHT22;18221;38.704;0.152;2023-03-24T01:23:01;15.10;99.90
10175;DHT22;18221;38.704;0.152;2023-03-24T01:25:32;15.00;99.90
10175;DHT22;18221;38.704;0.152;2023-03-24T01:28:02;15.00;99.90
10175;DHT22;18221;38.704;0.152;2023-03-24T01:30:31;14.90;99.90
10175;DHT22;18221;38.704;0.152;2023-03-24T01:33:00;15.00;99.90
10175;DHT22;18221;38.704;0.152;2023-03-24T01:35:30;15.00;99.90
10175;DHT22;18221;38.704;0.152;2023-03-24T01:37:59;15.00;99.90
10175;DHT22;18221;38.704;0.152;2023-03-24T01:40:30;15.10;99.90
10175;DHT22;18221;38.704;0.152;2023-03-24T01:43:00;15.20;99.90
10175;DHT22;18221;38.704;0.152;2023-03-24T01:45:57;15.20;99.90
10175;DHT22;18221;38.704;0.152;2023-03-24T01:48:34;15.30;99.90
10175;DHT22;18221;38.704;0.152;2023-03-24T01:51:12;15.40;99.90
10175;DHT22;18221;38.704;0.152;2023-03-24T01:53:48;15.40;99.90
10175;DHT22;18221;38.704;0.152;2023-03-24T01:56:20;15.40;99.90
10175;DHT22;18221;38.704;0.152;2023-03-24T01:58:52;15.40;99.90
10175;DHT22;18221;38.704;0.152;2023-03-24T02:01:25;15.30;99.90
10175;DHT22;18221;38.704;0.152;2023-03-24T02:03:56;15.20;99.90
10175;DHT22;18221;38.704;0.152;2023-03-24T02:06:32;15.20;99.90
10175;DHT22;18221;38.704;0.152;2023-03-24T02:09:02;15.20;99.90
10175;DHT22;18221;38.704;0.152;2023-03-24T02:11:33;15.20;99.90
10175;DHT22;18221;38.704;0.152;2023-03-24T02:14:03;15.20;99.90
10175;DHT22;18221;38.704;0.152;2023-03-24T02:17:00;15.10;99.90
10175;DHT22;18221;38.704;0.152;2023-03-24T02:23:43;15.10;99.90
10175;DHT22;18221;38.704;0.152;2023-03-24T02:26:47;15.10;99.90
10175;DHT22;18221;38.704;0.152;2023-03-24T02:29:56;15.10;99.90
10175;DHT22;18221;38.704;0.152;2023-03-24T02:33:31;15.20;99.90
10175;DHT22;18221;38.704;0.152;2023-03-24T02:40:02;15.20;99.90
10175;DHT22;18221;38.704;0.152;2023-03-24T02:42:44;15.20;99.90
10175;DHT22;18221;38.704;0.152;2023-03-24T02:45:35;15.20;99.90
10175;DHT22;18221;38.704;0.152;2023-03-24T02:48:20;13.50;99.90
10175;DHT22;18221;38.704;0.152;2023-03-24T02:51:02;15.20;99.90
10175;DHT22;18221;38.704;0.152;2023-03-24T02:53:44;15.20;99.90
10175;DHT22;18221;38.704;0.152;2023-03-24T02:56:25;15.20;99.90
10175;DHT22;18221;38.704;0.152;2023-03-24T02:59:03;15.20;99.90
10175;DHT22;18221;38.704;0.152;2023-03-24T03:01:37;15.20;99.90
10175;DHT22;18221;38.704;0.152;2023-03-24T03:04:13;15.20;99.90
10175;DHT22;18221;38.704;0.152;2023-03-24T03:06:48;15.10;99.90
10175;DHT22;18221;38.704;0.152;2023-03-24T03:09:22;15.20;99.90
10175;DHT22;18221;38.704;0.152;2023-03-24T03:11:56;15.20;99.90
10175;DHT22;18221;38.704;0.152;2023-03-24T03:14:31;15.20;99.90
10175;DHT22;18221;38.704;0.152;2023-03-24T03:17:07;15.20;99.90
10175;DHT22;18221;38.704;0.152;2023-03-24T03:19:42;15.20;99.90
10175;DHT22;18221;38.704;0.152;2023-03-24T03:22:17;15.20;99.90
10175;DHT22;18221;38.704;0.152;2023-03-24T03:24:51;15.20;99.90
10175;DHT22;18221;38.704;0.152;2023-03-24T03:27:26;15.20;99.90
10175;DHT22;18221;38.704;0.152;2023-03-24T03:30:02;15.20;99.90
10175;DHT22;18221;38.704;0.152;2023-03-24T03:32:38;15.20;99.90
10175;DHT22;18221;38.704;0.152;2023-03-24T03:35:13;15.20;99.90
10175;DHT22;18221;38.704;0.152;2023-03-24T03:37:51;15.20;99.90
10175;DHT22;18221;38.704;0.152;2023-03-24T03:40:30;15.30;99.90
10175;DHT22;18221;38.704;0.152;2023-03-24T03:43:03;15.30;99.90
10175;DHT22;18221;38.704;0.152;2023-03-24T03:45:33;15.30;99.90
10175;DHT22;18221;38.704;0.152;2023-03-24T03:48:02;15.20;99.90
10175;DHT22;18221;38.704;0.152;2023-03-24T03:50:31;15.10;99.90
10175;DHT22;18221;38.704;0.152;2023-03-24T03:53:00;15.10;99.90
10175;DHT22;18221;38.704;0.152;2023-03-24T03:55:28;15.10;99.90
10175;DHT22;18221;38.704;0.152;2023-03-24T03:57:57;15.00;99.90
10175;DHT22;18221;38.704;0.152;2023-03-24T04:00:28;15.00;99.90
10175;DHT22;18221;38.704;0.152;2023-03-24T04:03:13;14.90;99.90
10175;DHT22;18221;38.704;0.152;2023-03-24T04:05:54;14.90;99.90
10175;DHT22;18221;38.704;0.152;2023-03-24T04:08:37;14.90;99.90
10175;DHT22;18221;38.704;0.152;2023-03-24T04:11:39;14.80;99.90
10175;DHT22;18221;38.704;0.152;2023-03-24T04:18:04;14.80;99.90
10175;DHT22;18221;38.704;0.152;2023-03-24T04:21:01;14.80;99.90
10175;DHT22;18221;38.704;0.152;2023-03-24T04:23:44;14.80;99.90
10175;DHT22;18221;38.704;0.152;2023-03-24T04:26:26;14.80;99.90
10175;DHT22;18221;38.704;0.152;2023-03-24T04:29:13;14.80;99.90
10175;DHT22;18221;38.704;0.152;2023-03-24T04:31:50;14.80;99.90
10175;DHT22;18221;38.704;0.152;2023-03-24T04:34:31;14.80;99.90
10175;DHT22;18221;38.704;0.152;2023-03-24T04:37:06;14.80;99.90
10175;DHT22;18221;38.704;0.152;2023-03-24T04:39:40;14.80;99.90
10175;DHT22;18221;38.704;0.152;2023-03-24T04:42:16;14.60;99.90
10175;DHT22;18221;38.704;0.152;2023-03-24T04:44:48;14.80;99.90
10175;DHT22;18221;38.704;0.152;2023-03-24T04:47:18;14.80;99.90
10175;DHT22;18221;38.704;0.152;2023-03-24T04:49:50;14.80;99.90
10175;DHT22;18221;38.704;0.152;2023-03-24T04:52:26;14.80;99.90
10175;DHT22;18221;38.704;0.152;2023-03-24T04:54:56;14.70;99.90
10175;DHT22;18221;38.704;0.152;2023-03-24T04:57:25;14.70;99.90
10175;DHT22;18221;38.704;0.152;2023-03-24T04:59:53;14.70;99.90
10175;DHT22;18221;38.704;0.152;2023-03-24T05:02:22;14.80;99.90
10175;DHT22;18221;38.704;0.152;2023-03-24T05:04:52;14.70;99.90
10175;DHT22;18221;38.704;0.152;2023-03-24T05:07:20;14.70;99.90
10175;DHT22;18221;38.704;0.152;2023-03-24T05:09:49;14.70;99.90
10175;DHT22;18221;38.704;0.152;2023-03-24T05:12:17;14.70;99.90
10175;DHT22;18221;38.704;0.152;2023-03-24T05:14:45;14.70;99.90
10175;DHT22;18221;38.704;0.152;2023-03-24T05:17:13;14.70;99.90
10175;DHT22;18221;38.704;0.152;2023-03-24T05:19:41;14.70;99.90
10175;DHT22;18221;38.704;0.152;2023-03-24T05:22:11;14.70;99.90
10175;DHT22;18221;38.704;0.152;2023-03-24T05:24:39;14.70;99.90
10175;DHT22;18221;38.704;0.152;2023-03-24T05:27:08;14.80;99.90
10175;DHT22;18221;38.704;0.152;2023-03-24T05:29:36;14.70;99.90
10175;DHT22;18221;38.704;0.152;2023-03-24T05:32:05;14.70;99.90
10175;DHT22;18221;38.704;0.152;2023-03-24T05:34:33;14.70;99.90
10175;DHT22;18221;38.704;0.152;2023-03-24T05:37:01;14.70;99.90
10175;DHT22;18221;38.704;0.152;2023-03-24T05:39:31;14.70;99.90
10175;DHT22;18221;38.704;0.152;2023-03-24T05:41:59;14.60;99.90
10175;DHT22;18221;38.704;0.152;2023-03-24T05:44:28;14.60;99.90
10175;DHT22;18221;38.704;0.152;2023-03-24T05:46:56;14.60;99.90
10175;DHT22;18221;38.704;0.152;2023-03-24T05:49:24;14.60;99.90
10175;DHT22;18221;38.704;0.152;2023-03-24T05:51:53;14.60;99.90
10175;DHT22;18221;38.704;0.152;2023-03-24T05:54:21;14.60;99.90
10175;DHT22;18221;38.704;0.152;2023-03-24T05:56:51;14.60;99.90
10175;DHT22;18221;38.704;0.152;2023-03-24T05:59:19;14.60;99.90
10175;DHT22;18221;38.704;0.152;2023-03-24T06:01:48;14.60;99.90
10175;DHT22;18221;38.704;0.152;2023-03-24T06:04:18;14.70;99.90
10175;DHT22;18221;38.704;0.152;2023-03-24T06:06:47;14.70;99.90
10175;DHT22;18221;38.704;0.152;2023-03-24T06:09:15;14.70;99.90
10175;DHT22;18221;38.704;0.152;2023-03-24T06:11:44;14.70;99.90
10175;DHT22;18221;38.704;0.152;2023-03-24T06:14:14;14.70;99.90
10175;DHT22;18221;38.704;0.152;2023-03-24T06:16:42;14.80;99.90
10175;DHT22;18221;38.704;0.152;2023-03-24T06:19:11;14.80;99.90
10175;DHT22;18221;38.704;0.152;2023-03-24T06:21:39;14.80;99.90
10175;DHT22;18221;38.704;0.152;2023-03-24T06:24:09;14.80;99.90
10175;DHT22;18221;38.704;0.152;2023-03-24T06:26:39;14.80;99.90
10175;DHT22;18221;38.704;0.152;2023-03-24T06:29:09;14.80;99.90
10175;DHT22;18221;38.704;0.152;2023-03-24T06:31:39;14.80;99.90
10175;DHT22;18221;38.704;0.152;2023-03-24T06:34:08;14.80;99.90
10175;DHT22;18221;38.704;0.152;2023-03-24T06:36:36;14.70;99.90
10175;DHT22;18221;38.704;0.152;2023-03-24T06:39:05;14.70;99.90
10175;DHT22;18221;38.704;0.152;2023-03-24T06:41:34;14.70;99.90
10175;DHT22;18221;38.704;0.152;2023-03-24T06:44:02;14.70;99.90
10175;DHT22;18221;38.704;0.152;2023-03-24T06:46:30;14.80;99.90
10175;DHT22;18221;38.704;0.152;2023-03-24T06:49:00;14.80;99.90
10175;DHT22;18221;38.704;0.152;2023-03-24T06:51:28;14.80;99.90
10175;DHT22;18221;38.704;0.152;2023-03-24T06:53:57;14.90;99.90
10175;DHT22;18221;38.704;0.152;2023-03-24T06:56:25;15.00;99.90
10175;DHT22;18221;38.704;0.152;2023-03-24T06:58:53;15.10;99.90
10175;DHT22;18221;38.704;0.152;2023-03-24T07:01:22;15.10;99.90
10175;DHT22;18221;38.704;0.152;2023-03-24T07:03:50;15.10;99.90
10175;DHT22;18221;38.704;0.152;2023-03-24T07:06:20;15.20;99.90
10175;DHT22;18221;38.704;0.152;2023-03-24T07:08:49;15.20;99.90
10175;DHT22;18221;38.704;0.152;2023-03-24T07:11:18;15.30;99.90
10175;DHT22;18221;38.704;0.152;2023-03-24T07:13:46;15.40;99.90
10175;DHT22;18221;38.704;0.152;2023-03-24T07:16:15;15.50;99.90
10175;DHT22;18221;38.704;0.152;2023-03-24T07:18:43;15.60;99.90
10175;DHT22;18221;38.704;0.152;2023-03-24T07:21:12;15.70;99.90
10175;DHT22;18221;38.704;0.152;2023-03-24T07:23:43;15.90;99.90
10175;DHT22;18221;38.704;0.152;2023-03-24T07:26:12;16.10;99.90
10175;DHT22;18221;38.704;0.152;2023-03-24T07:28:40;16.20;99.90
10175;DHT22;18221;38.704;0.152;2023-03-24T07:31:09;16.20;99.90
10175;DHT22;18221;38.704;0.152;2023-03-24T07:33:37;16.30;99.90
10175;DHT22;18221;38.704;0.152;2023-03-24T07:36:07;16.40;99.90
10175;DHT22;18221;38.704;0.152;2023-03-24T07:38:36;16.50;99.90
10175;DHT22;18221;38.704;0.152;2023-03-24T07:41:07;16.60;99.90
10175;DHT22;18221;38.704;0.152;2023-03-24T07:43:35;16.70;99.90
10175;DHT22;18221;38.704;0.152;2023-03-24T07:46:04;16.80;99.90
10175;DHT22;18221;38.704;0.152;2023-03-24T07:48:33;16.90;99.90
10175;DHT22;18221;38.704;0.152;2023-03-24T07:51:01;17.00;99.90
10175;DHT22;18221;38.704;0.152;2023-03-24T07:53:30;17.20;99.90
10175;DHT22;18221;38.704;0.152;2023-03-24T07:55:58;17.20;99.90
10175;DHT22;18221;38.704;0.152;2023-03-24T07:58:28;17.30;99.90
10175;DHT22;18221;38.704;0.152;2023-03-24T08:00:57;17.30;99.90
10175;DHT22;18221;38.704;0.152;2023-03-24T08:03:26;17.30;99.90
10175;DHT22;18221;38.704;0.152;2023-03-24T08:05:54;17.30;99.90
10175;DHT22;18221;38.704;0.152;2023-03-24T08:08:23;17.30;99.90
10175;DHT22;18221;38.704;0.152;2023-03-24T08:10:51;17.40;99.90
10175;DHT22;18221;38.704;0.152;2023-03-24T08:13:20;17.40;99.90
10175;DHT22;18221;38.704;0.152;2023-03-24T08:15:50;17.50;99.90
10175;DHT22;18221;38.704;0.152;2023-03-24T08:18:20;17.40;99.90
10175;DHT22;18221;38.704;0.152;2023-03-24T08:20:49;17.30;99.90
10175;DHT22;18221;38.704;0.152;2023-03-24T08:23:22;17.30;99.90
10175;DHT22;18221;38.704;0.152;2023-03-24T08:25:51;17.30;99.90
10175;DHT22;18221;38.704;0.152;2023-03-24T08:28:19;17.30;99.90
10175;DHT22;18221;38.704;0.152;2023-03-24T08:30:48;17.40;99.90
10175;DHT22;18221;38.704;0.152;2023-03-24T08:33:17;17.40;99.90
10175;DHT22;18221;38.704;0.152;2023-03-24T08:35:46;17.50;99.90
10175;DHT22;18221;38.704;0.152;2023-03-24T08:38:16;17.60;99.90
10175;DHT22;18221;38.704;0.152;2023-03-24T08:40:48;17.60;99.90
10175;DHT22;18221;38.704;0.152;2023-03-24T08:43:16;17.70;99.90
10175;DHT22;18221;38.704;0.152;2023-03-24T08:45:48;17.70;99.90
10175;DHT22;18221;38.704;0.152;2023-03-24T08:48:17;17.70;99.90
10175;DHT22;18221;38.704;0.152;2023-03-24T08:50:46;17.60;99.90
10175;DHT22;18221;38.704;0.152;2023-03-24T08:53:14;17.50;99.90
10175;DHT22;18221;38.704;0.152;2023-03-24T08:55:43;17.50;99.90
10175;DHT22;18221;38.704;0.152;2023-03-24T08:58:15;17.40;99.90
10175;DHT22;18221;38.704;0.152;2023-03-24T09:00:46;17.40;99.90
10175;DHT22;18221;38.704;0.152;2023-03-24T09:03:18;17.40;99.90
10175;DHT22;18221;38.704;0.152;2023-03-24T09:05:47;17.40;99.90
10175;DHT22;18221;38.704;0.152;2023-03-24T09:08:17;17.50;99.90
10175;DHT22;18221;38.704;0.152;2023-03-24T09:10:46;17.50;99.90
10175;DHT22;18221;38.704;0.152;2023-03-24T09:13:17;17.60;99.90
10175;DHT22;18221;38.704;0.152;2023-03-24T09:15:47;17.70;99.90
10175;DHT22;18221;38.704;0.152;2023-03-24T09:18:19;17.90;99.90
10175;DHT22;18221;38.704;0.152;2023-03-24T09:20:48;18.00;99.90
10175;DHT22;18221;38.704;0.152;2023-03-24T09:23:17;18.00;99.90
10175;DHT22;18221;38.704;0.152;2023-03-24T09:25:48;18.10;99.90
10175;DHT22;18221;38.704;0.152;2023-03-24T09:28:17;18.20;99.90
10175;DHT22;18221;38.704;0.152;2023-03-24T09:30:45;18.30;99.90
10175;DHT22;18221;38.704;0.152;2023-03-24T09:33:14;18.30;99.90
10175;DHT22;18221;38.704;0.152;2023-03-24T09:35:44;18.40;99.90
10175;DHT22;18221;38.704;0.152;2023-03-24T09:38:12;18.30;99.90
10175;DHT22;18221;38.704;0.152;2023-03-24T09:40:41;18.40;99.90
10175;DHT22;18221;38.704;0.152;2023-03-24T09:43:19;18.40;99.90
10175;DHT22;18221;38.704;0.152;2023-03-24T09:45:56;18.40;99.90
10175;DHT22;18221;38.704;0.152;2023-03-24T09:48:32;18.40;99.90
10175;DHT22;18221;38.704;0.152;2023-03-24T09:51:08;18.50;99.90
10175;DHT22;18221;38.704;0.152;2023-03-24T09:53:45;18.40;99.90
10175;DHT22;18221;38.704;0.152;2023-03-24T09:56:22;18.50;99.90
10175;DHT22;18221;38.704;0.152;2023-03-24T09:59:02;18.50;99.90
10175;DHT22;18221;38.704;0.152;2023-03-24T10:01:33;18.50;99.90
10175;DHT22;18221;38.704;0.152;2023-03-24T10:04:02;18.40;99.90
10175;DHT22;18221;38.704;0.152;2023-03-24T10:06:37;18.50;99.90
10175;DHT22;18221;38.704;0.152;2023-03-24T10:09:17;18.50;99.90
10175;DHT22;18221;38.704;0.152;2023-03-24T10:12:01;18.50;99.90
10175;DHT22;18221;38.704;0.152;2023-03-24T10:14:48;18.60;99.90
10175;DHT22;18221;38.704;0.152;2023-03-24T10:17:28;18.60;99.90
10175;DHT22;18221;38.704;0.152;2023-03-24T10:20:16;18.60;99.90
10175;DHT22;18221;38.704;0.152;2023-03-24T10:22:59;18.60;99.90
10175;DHT22;18221;38.704;0.152;2023-03-24T10:25:50;18.60;99.90
10175;DHT22;18221;38.704;0.152;2023-03-24T10:28:27;18.70;99.90
10175;DHT22;18221;38.704;0.152;2023-03-24T10:31:07;18.70;99.90
10175;DHT22;18221;38.704;0.152;2023-03-24T10:33:40;18.70;99.90
10175;DHT22;18221;38.704;0.152;2023-03-24T10:36:12;18.80;99.90
10175;DHT22;18221;38.704;0.152;2023-03-24T10:38:45;18.90;99.90
10175;DHT22;18221;38.704;0.152;2023-03-24T10:41:15;18.90;99.90
10175;DHT22;18221;38.704;0.152;2023-03-24T10:43:46;19.00;99.90
10175;DHT22;18221;38.704;0.152;2023-03-24T10:46:20;19.00;99.90
10175;DHT22;18221;38.704;0.152;2023-03-24T10:48:52;19.10;99.90
10175;DHT22;18221;38.704;0.152;2023-03-24T10:51:35;19.30;99.90
10175;DHT22;18221;38.704;0.152;2023-03-24T10:54:16;19.40;99.90
10175;DHT22;18221;38.704;0.152;2023-03-24T10:56:47;19.30;99.90
10175;DHT22;18221;38.704;0.152;2023-03-24T10:59:20;19.40;99.90
10175;DHT22;18221;38.704;0.152;2023-03-24T11:01:58;19.40;99.90
10175;DHT22;18221;38.704;0.152;2023-03-24T11:04:30;19.50;99.90
10175;DHT22;18221;38.704;0.152;2023-03-24T11:07:04;19.50;99.90
10175;DHT22;18221;38.704;0.152;2023-03-24T11:09:42;19.50;99.90
10175;DHT22;18221;38.704;0.152;2023-03-24T11:12:23;19.40;99.90
10175;DHT22;18221;38.704;0.152;2023-03-24T11:15:02;19.40;99.90
10175;DHT22;18221;38.704;0.152;2023-03-24T11:17:41;19.40;99.90
10175;DHT22;18221;38.704;0.152;2023-03-24T11:20:17;19.60;99.90
10175;DHT22;18221;38.704;0.152;2023-03-24T11:23:00;19.60;99.90
10175;DHT22;18221;38.704;0.152;2023-03-24T11:25:34;19.70;99.90
10175;DHT22;18221;38.704;0.152;2023-03-24T11:28:06;19.70;99.90
10175;DHT22;18221;38.704;0.152;2023-03-24T11:30:45;19.80;99.90
10175;DHT22;18221;38.704;0.152;2023-03-24T11:33:19;19.80;99.90
10175;DHT22;18221;38.704;0.152;2023-03-24T11:35:50;19.90;99.90
10175;DHT22;18221;38.704;0.152;2023-03-24T11:38:28;19.90;99.90
10175;DHT22;18221;38.704;0.152;2023-03-24T11:41:00;19.90;99.90
10175;DHT22;18221;38.704;0.152;2023-03-24T11:43:31;20.00;99.90
10175;DHT22;18221;38.704;0.152;2023-03-24T11:46:02;20.00;99.90
10175;DHT22;18221;38.704;0.152;2023-03-24T11:48:43;20.10;99.90
10175;DHT22;18221;38.704;0.152;2023-03-24T11:51:24;20.30;99.90
10175;DHT22;18221;38.704;0.152;2023-03-24T11:53:57;20.40;99.90
10175;DHT22;18221;38.704;0.152;2023-03-24T11:56:32;20.40;99.90
10175;DHT22;18221;38.704;0.152;2023-03-24T11:59:15;20.50;99.90
10175;DHT22;18221;38.704;0.152;2023-03-24T12:01:53;20.60;99.90
10175;DHT22;18221;38.704;0.152;2023-03-24T12:04:44;20.70;99.90
10175;DHT22;18221;38.704;0.152;2023-03-24T12:07:46;20.90;99.90
10175;DHT22;18221;38.704;0.152;2023-03-24T12:10:43;21.00;99.90
10175;DHT22;18221;38.704;0.152;2023-03-24T12:13:30;21.00;99.90
10175;DHT22;18221;38.704;0.152;2023-03-24T12:16:11;21.10;99.90
10175;DHT22;18221;38.704;0.152;2023-03-24T12:19:33;21.10;99.90
10175;DHT22;18221;38.704;0.152;2023-03-24T12:22:21;21.10;99.90
10175;DHT22;18221;38.704;0.152;2023-03-24T12:25:24;21.20;99.90
10175;DHT22;18221;38.704;0.152;2023-03-24T12:28:18;21.20;99.90
10175;DHT22;18221;38.704;0.152;2023-03-24T12:31:09;21.10;99.90
10175;DHT22;18221;38.704;0.152;2023-03-24T12:34:01;21.30;99.90
10175;DHT22;18221;38.704;0.152;2023-03-24T12:36:45;21.60;99.90
10175;DHT22;18221;38.704;0.152;2023-03-24T12:39:27;21.60;99.90
10175;DHT22;18221;38.704;0.152;2023-03-24T12:42:06;21.50;99.90
10175;DHT22;18221;38.704;0.152;2023-03-24T12:45:04;21.50;99.90
10175;DHT22;18221;38.704;0.152;2023-03-24T12:48:11;21.60;99.90
10175;DHT22;18221;38.704;0.152;2023-03-24T12:51:02;21.40;99.90
10175;DHT22;18221;38.704;0.152;2023-03-24T12:53:50;21.30;99.90
10175;DHT22;18221;38.704;0.152;2023-03-24T12:56:33;21.10;99.90
10175;DHT22;18221;38.704;0.152;2023-03-24T12:59:10;21.00;99.90
10175;DHT22;18221;38.704;0.152;2023-03-24T13:01:45;21.00;99.90
10175;DHT22;18221;38.704;0.152;2023-03-24T13:04:21;21.00;99.90
10175;DHT22;18221;38.704;0.152;2023-03-24T13:06:59;21.00;99.90
10175;DHT22;18221;38.704;0.152;2023-03-24T13:09:38;21.00;99.90
10175;DHT22;18221;38.704;0.152;2023-03-24T13:12:16;20.80;99.90
10175;DHT22;18221;38.704;0.152;2023-03-24T13:14:56;20.80;99.90
10175;DHT22;18221;38.704;0.152;2023-03-24T13:17:36;20.80;99.90
10175;DHT22;18221;38.704;0.152;2023-03-24T13:20:13;20.90;99.90
10175;DHT22;18221;38.704;0.152;2023-03-24T13:22:51;20.90;99.90
10175;DHT22;18221;38.704;0.152;2023-03-24T13:25:29;20.80;99.90
10175;DHT22;18221;38.704;0.152;2023-03-24T13:28:08;20.70;99.90
10175;DHT22;18221;38.704;0.152;2023-03-24T13:30:44;20.60;99.90
10175;DHT22;18221;38.704;0.152;2023-03-24T13:33:17;20.60;99.90
10175;DHT22;18221;38.704;0.152;2023-03-24T13:36:04;20.60;99.90
10175;DHT22;18221;38.704;0.152;2023-03-24T13:38:44;20.60;99.90
10175;DHT22;18221;38.704;0.152;2023-03-24T13:41:19;20.60;99.90
10175;DHT22;18221;38.704;0.152;2023-03-24T13:43:58;20.80;99.90
10175;DHT22;18221;38.704;0.152;2023-03-24T13:46:28;20.70;99.90
10175;DHT22;18221;38.704;0.152;2023-03-24T13:48:58;21.30;99.90
10175;DHT22;18221;38.704;0.152;2023-03-24T13:51:30;20.60;99.90
10175;DHT22;18221;38.704;0.152;2023-03-24T13:54:05;20.50;99.90
10175;DHT22;18221;38.704;0.152;2023-03-24T13:56:47;20.50;99.90
10175;DHT22;18221;38.704;0.152;2023-03-24T13:59:26;20.70;99.90
10175;DHT22;18221;38.704;0.152;2023-03-24T14:02:19;20.80;99.90
10175;DHT22;18221;38.704;0.152;2023-03-24T14:05:02;20.90;99.90
10175;DHT22;18221;38.704;0.152;2023-03-24T14:07:41;21.10;99.90
10175;DHT22;18221;38.704;0.152;2023-03-24T14:10:40;21.20;99.90
10175;DHT22;18221;38.704;0.152;2023-03-24T14:13:21;21.30;99.90
10175;DHT22;18221;38.704;0.152;2023-03-24T14:19:24;21.50;99.90
10175;DHT22;18221;38.704;0.152;2023-03-24T14:22:12;21.60;99.90
10175;DHT22;18221;38.704;0.152;2023-03-24T14:24:43;21.60;99.90
10175;DHT22;18221;38.704;0.152;2023-03-24T14:27:33;21.70;99.90
10175;DHT22;18221;38.704;0.152;2023-03-24T14:30:11;21.70;99.90
10175;DHT22;18221;38.704;0.152;2023-03-24T14:32:47;21.80;99.90
10175;DHT22;18221;38.704;0.152;2023-03-24T14:35:25;21.80;99.90
10175;DHT22;18221;38.704;0.152;2023-03-24T14:38:02;21.70;99.90
10175;DHT22;18221;38.704;0.152;2023-03-24T14:40:36;21.50;99.90
10175;DHT22;18221;38.704;0.152;2023-03-24T14:43:20;21.40;99.90
10175;DHT22;18221;38.704;0.152;2023-03-24T14:45:56;21.30;99.90
10175;DHT22;18221;38.704;0.152;2023-03-24T14:48:57;21.40;99.90
10175;DHT22;18221;38.704;0.152;2023-03-24T14:51:36;21.40;99.90
10175;DHT22;18221;38.704;0.152;2023-03-24T14:54:15;21.40;99.90
10175;DHT22;18221;38.704;0.152;2023-03-24T14:56:49;21.30;99.90
10175;DHT22;18221;38.704;0.152;2023-03-24T14:59:32;21.40;99.90
10175;DHT22;18221;38.704;0.152;2023-03-24T15:02:25;21.30;99.90
10175;DHT22;18221;38.704;0.152;2023-03-24T15:05:22;21.30;99.90
10175;DHT22;18221;38.704;0.152;2023-03-24T15:08:00;21.30;99.90
10175;DHT22;18221;38.704;0.152;2023-03-24T15:10:39;21.30;99.90
10175;DHT22;18221;38.704;0.152;2023-03-24T15:13:38;21.30;99.90
10175;DHT22;18221;38.704;0.152;2023-03-24T15:16:21;21.30;99.90
10175;DHT22;18221;38.704;0.152;2023-03-24T15:18:52;21.20;99.90
10175;DHT22;18221;38.704;0.152;2023-03-24T15:21:26;21.20;99.90
10175;DHT22;18221;38.704;0.152;2023-03-24T15:23:57;21.20;99.90
10175;DHT22;18221;38.704;0.152;2023-03-24T15:26:29;21.20;99.90
10175;DHT22;18221;38.704;0.152;2023-03-24T15:29:00;21.10;99.90
10175;DHT22;18221;38.704;0.152;2023-03-24T15:31:29;21.10;99.90
10175;DHT22;18221;38.704;0.152;2023-03-24T15:34:05;21.00;99.90
10175;DHT22;18221;38.704;0.152;2023-03-24T15:36:53;21.00;99.90
10175;DHT22;18221;38.704;0.152;2023-03-24T15:39:25;20.90;99.90
10175;DHT22;18221;38.704;0.152;2023-03-24T15:41:56;20.70;99.90
10175;DHT22;18221;38.704;0.152;2023-03-24T15:44:26;20.70;99.90
10175;DHT22;18221;38.704;0.152;2023-03-24T15:46:57;20.60;99.90
10175;DHT22;18221;38.704;0.152;2023-03-24T15:49:29;20.60;99.90
10175;DHT22;18221;38.704;0.152;2023-03-24T15:52:01;20.50;99.90
10175;DHT22;18221;38.704;0.152;2023-03-24T15:54:38;20.40;99.90
10175;DHT22;18221;38.704;0.152;2023-03-24T15:57:17;20.30;99.90
10175;DHT22;18221;38.704;0.152;2023-03-24T15:59:47;20.20;99.90
10175;DHT22;18221;38.704;0.152;2023-03-24T16:02:24;20.00;99.90
10175;DHT22;18221;38.704;0.152;2023-03-24T16:04:58;20.00;99.90
10175;DHT22;18221;38.704;0.152;2023-03-24T16:07:31;19.80;99.90
10175;DHT22;18221;38.704;0.152;2023-03-24T16:10:02;19.80;99.90
10175;DHT22;18221;38.704;0.152;2023-03-24T16:12:35;19.80;99.90
10175;DHT22;18221;38.704;0.152;2023-03-24T16:15:05;19.80;99.90
10175;DHT22;18221;38.704;0.152;2023-03-24T16:17:34;19.80;99.90
10175;DHT22;18221;38.704;0.152;2023-03-24T16:20:02;19.90;99.90
10175;DHT22;18221;38.704;0.152;2023-03-24T16:22:33;19.90;99.90
10175;DHT22;18221;38.704;0.152;2023-03-24T16:25:02;19.90;99.90
10175;DHT22;18221;38.704;0.152;2023-03-24T16:27:31;19.80;99.90
10175;DHT22;18221;38.704;0.152;2023-03-24T16:30:01;19.80;99.90
10175;DHT22;18221;38.704;0.152;2023-03-24T16:32:38;19.90;99.90
10175;DHT22;18221;38.704;0.152;2023-03-24T16:35:07;19.80;99.90
10175;DHT22;18221;38.704;0.152;2023-03-24T16:37:36;19.80;99.90